createdAt,value
2018-01-02T00:00:38.318Z,993.75
2018-01-02T00:01:38.915Z,993.81
2018-01-02T00:02:39.551Z,993.84
2018-01-02T00:03:40.103Z,993.81
2018-01-02T00:04:40.700Z,993.92
2018-01-02T00:05:41.296Z,993.92
2018-01-02T00:06:41.887Z,993.96
2018-01-02T00:07:42.492Z,993.97
2018-01-02T00:08:43.099Z,994.01
2018-01-02T00:09:43.699Z,993.95
2018-01-02T00:10:44.307Z,994.01
2018-01-02T00:11:44.905Z,994.05
2018-01-02T00:12:45.505Z,994.00
2018-01-02T00:13:46.112Z,993.95
2018-01-02T00:14:46.715Z,994.00
2018-01-02T00:15:47.325Z,994.00
2018-01-02T00:16:47.932Z,994.02
2018-01-02T00:17:48.525Z,994.06
2018-01-02T00:18:49.129Z,994.05
2018-01-02T00:19:49.744Z,994.04
2018-01-02T00:20:50.350Z,994.08
2018-01-02T00:21:50.952Z,994.09
2018-01-02T00:22:51.558Z,994.04
2018-01-02T00:23:52.160Z,994.08
2018-01-02T00:24:52.761Z,994.07
2018-01-02T00:25:53.355Z,994.13
2018-01-02T00:26:53.966Z,994.14
2018-01-02T00:27:54.569Z,994.13
2018-01-02T00:28:55.175Z,994.22
2018-01-02T00:29:55.767Z,994.15
2018-01-02T00:30:56.356Z,994.18
2018-01-02T00:31:56.954Z,994.21
2018-01-02T00:32:57.574Z,994.18
2018-01-02T00:33:58.155Z,994.19
2018-01-02T00:34:58.741Z,994.25
2018-01-02T00:35:59.336Z,994.26
2018-01-02T00:36:59.937Z,994.23
2018-01-02T00:38:00.523Z,994.23
2018-01-02T00:39:01.114Z,994.24
2018-01-02T00:40:01.711Z,994.26
2018-01-02T00:41:02.308Z,994.24
2018-01-02T00:42:02.913Z,994.28
2018-01-02T00:43:03.512Z,994.26
2018-01-02T00:44:04.119Z,994.28
2018-01-02T00:45:04.726Z,994.25
2018-01-02T00:46:05.322Z,994.27
2018-01-02T00:47:05.920Z,994.23
2018-01-02T00:48:06.512Z,994.27
2018-01-02T00:49:07.102Z,994.27
2018-01-02T00:50:07.703Z,994.28
2018-01-02T00:51:08.311Z,994.27
2018-01-02T00:52:08.908Z,994.27
2018-01-02T00:53:09.509Z,994.31
2018-01-02T00:54:10.112Z,994.33
2018-01-02T00:55:10.714Z,994.34
2018-01-02T00:56:11.320Z,994.33
2018-01-02T00:57:11.915Z,994.34
2018-01-02T00:58:12.519Z,994.36
2018-01-02T00:59:13.123Z,994.42
2018-01-02T01:00:57.944Z,994.44
2018-01-02T01:01:58.564Z,994.42
2018-01-02T01:02:59.167Z,994.48
2018-01-02T01:03:59.756Z,994.46
2018-01-02T01:05:00.354Z,994.50
2018-01-02T01:06:00.944Z,994.56
2018-01-02T01:07:01.543Z,994.54
2018-01-02T01:08:02.147Z,994.59
2018-01-02T01:09:02.733Z,994.61
2018-01-02T01:10:03.329Z,994.66
2018-01-02T01:11:03.933Z,994.71
2018-01-02T01:12:04.568Z,994.65
2018-01-02T01:13:05.142Z,994.74
2018-01-02T01:14:05.735Z,994.75
2018-01-02T01:15:06.334Z,994.72
2018-01-02T01:16:06.929Z,994.71
2018-01-02T01:17:07.537Z,994.63
2018-01-02T01:18:08.143Z,994.71
2018-01-02T01:19:08.729Z,994.77
2018-01-02T01:20:09.334Z,994.70
2018-01-02T01:21:09.942Z,994.79
2018-01-02T01:22:10.532Z,994.78
2018-01-02T01:23:11.130Z,994.83
2018-01-02T01:24:11.722Z,994.81
2018-01-02T01:25:12.317Z,994.89
2018-01-02T01:26:12.915Z,994.92
2018-01-02T01:27:13.514Z,994.87
2018-01-02T01:28:14.104Z,994.92
2018-01-02T01:29:14.691Z,994.92
2018-01-02T01:30:15.289Z,994.96
2018-01-02T01:31:15.887Z,994.97
2018-01-02T01:32:16.482Z,994.99
2018-01-02T01:33:17.083Z,995.02
2018-01-02T01:34:17.676Z,995.07
2018-01-02T01:35:18.275Z,995.04
2018-01-02T01:36:18.881Z,995.04
2018-01-02T01:37:19.487Z,995.04
2018-01-02T01:38:20.080Z,995.05
2018-01-02T01:39:20.686Z,995.05
2018-01-02T01:40:21.286Z,995.10
2018-01-02T01:41:21.889Z,995.15
2018-01-02T01:42:22.502Z,995.02
2018-01-02T01:43:23.111Z,995.07
2018-01-02T01:44:23.715Z,995.08
2018-01-02T01:45:24.313Z,995.07
2018-01-02T01:46:24.913Z,995.09
2018-01-02T01:47:25.507Z,995.11
2018-01-02T01:48:26.104Z,995.12
2018-01-02T01:49:26.701Z,995.14
2018-01-02T01:50:27.301Z,995.19
2018-01-02T01:51:27.909Z,995.17
2018-01-02T01:52:28.514Z,995.18
2018-01-02T01:53:29.109Z,995.18
2018-01-02T01:54:29.716Z,995.19
2018-01-02T01:55:30.326Z,995.23
2018-01-02T01:56:30.914Z,995.24
2018-01-02T01:57:31.517Z,995.27
2018-01-02T01:58:32.124Z,995.21
2018-01-02T01:59:32.722Z,995.23
2018-01-02T02:00:33.326Z,995.27
2018-01-02T02:01:33.938Z,995.18
2018-01-02T02:02:34.549Z,995.21
2018-01-02T02:03:35.139Z,995.20
2018-01-02T02:04:35.726Z,995.23
2018-01-02T02:05:36.324Z,995.22
2018-01-02T02:06:36.976Z,995.18
2018-01-02T02:07:37.529Z,995.13
2018-01-02T02:08:38.127Z,995.20
2018-01-02T02:09:38.715Z,995.19
2018-01-02T02:10:39.364Z,995.16
2018-01-02T02:11:39.912Z,995.17
2018-01-02T02:12:40.509Z,995.15
2018-01-02T02:13:41.098Z,995.16
2018-01-02T02:14:41.699Z,995.12
2018-01-02T02:15:42.310Z,995.06
2018-01-02T02:16:42.917Z,995.11
2018-01-02T02:17:43.512Z,995.13
2018-01-02T02:18:44.108Z,995.13
2018-01-02T02:19:44.716Z,995.09
2018-01-02T02:20:45.306Z,995.11
2018-01-02T02:21:45.897Z,995.08
2018-01-02T02:22:46.493Z,995.14
2018-01-02T02:23:47.083Z,995.19
2018-01-02T02:24:47.685Z,995.16
2018-01-02T02:25:48.291Z,995.20
2018-01-02T02:26:48.895Z,995.16
2018-01-02T02:27:49.495Z,995.12
2018-01-02T02:28:50.090Z,995.20
2018-01-02T02:29:50.683Z,995.20
2018-01-02T02:30:51.288Z,995.23
2018-01-02T02:31:51.877Z,995.24
2018-01-02T02:32:52.464Z,995.29
2018-01-02T02:33:53.054Z,995.28
2018-01-02T02:34:53.650Z,995.26
2018-01-02T02:35:54.244Z,995.42
2018-01-02T02:36:54.847Z,995.31
2018-01-02T02:37:55.446Z,995.32
2018-01-02T02:38:56.044Z,995.31
2018-01-02T02:39:56.641Z,995.24
2018-01-02T02:40:57.237Z,995.25
2018-01-02T02:41:57.824Z,995.28
2018-01-02T02:42:58.431Z,995.27
2018-01-02T02:43:59.025Z,995.35
2018-01-02T02:44:59.638Z,995.24
2018-01-02T02:46:00.243Z,995.37
2018-01-02T02:47:00.837Z,995.32
2018-01-02T02:48:01.430Z,995.37
2018-01-02T02:49:02.032Z,995.34
2018-01-02T02:50:02.638Z,995.32
2018-01-02T02:51:03.233Z,995.29
2018-01-02T02:52:03.851Z,995.28
2018-01-02T02:53:04.437Z,995.32
2018-01-02T02:54:05.041Z,995.32
2018-01-02T02:55:05.640Z,995.36
2018-01-02T02:56:06.235Z,995.37
2018-01-02T02:57:06.830Z,995.35
2018-01-02T02:58:07.421Z,995.37
2018-01-02T02:59:08.021Z,995.35
2018-01-02T03:00:08.620Z,995.36
2018-01-02T03:01:09.226Z,995.44
2018-01-02T03:02:09.830Z,995.40
2018-01-02T03:03:10.425Z,995.43
2018-01-02T03:04:11.021Z,995.49
2018-01-02T03:05:11.616Z,995.44
2018-01-02T03:06:12.226Z,995.47
2018-01-02T03:07:12.816Z,995.29
2018-01-02T03:08:13.414Z,995.41
2018-01-02T03:09:14.013Z,995.45
2018-01-02T03:10:14.616Z,995.41
2018-01-02T03:11:15.214Z,995.42
2018-01-02T03:12:15.819Z,995.47
2018-01-02T03:13:16.424Z,995.50
2018-01-02T03:14:17.016Z,995.49
2018-01-02T03:15:17.612Z,995.52
2018-01-02T03:16:18.226Z,995.52
2018-01-02T03:17:18.834Z,995.57
2018-01-02T03:18:19.430Z,995.58
2018-01-02T03:19:20.026Z,995.56
2018-01-02T03:20:20.631Z,995.54
2018-01-02T03:21:21.227Z,995.56
2018-01-02T03:22:21.812Z,995.51
2018-01-02T03:23:22.403Z,995.55
2018-01-02T03:24:23.003Z,995.52
2018-01-02T03:25:23.600Z,995.60
2018-01-02T03:26:24.204Z,995.61
2018-01-02T03:27:24.820Z,995.60
2018-01-02T03:28:25.425Z,995.58
2018-01-02T03:29:26.020Z,995.64
2018-01-02T03:30:26.626Z,995.57
2018-01-02T03:31:27.227Z,995.60
2018-01-02T03:32:27.816Z,995.59
2018-01-02T03:33:28.413Z,995.68
2018-01-02T03:34:29.002Z,995.74
2018-01-02T03:35:29.600Z,995.72
2018-01-02T03:36:30.198Z,995.66
2018-01-02T03:37:30.804Z,995.64
2018-01-02T03:38:31.410Z,995.72
2018-01-02T03:39:32.006Z,995.78
2018-01-02T03:40:32.614Z,995.73
2018-01-02T03:41:33.222Z,995.71
2018-01-02T03:42:33.834Z,995.78
2018-01-02T03:43:34.441Z,995.82
2018-01-02T03:44:35.031Z,995.83
2018-01-02T03:45:35.622Z,995.69
2018-01-02T03:46:36.217Z,995.81
2018-01-02T03:47:36.830Z,995.90
2018-01-02T03:48:37.436Z,995.83
2018-01-02T03:49:38.034Z,995.92
2018-01-02T03:50:38.637Z,995.95
2018-01-02T03:51:39.235Z,995.96
2018-01-02T03:52:39.832Z,995.92
2018-01-02T03:53:40.436Z,996.04
2018-01-02T03:54:41.025Z,996.05
2018-01-02T03:55:41.620Z,995.95
2018-01-02T03:56:42.217Z,995.96
2018-01-02T03:57:42.806Z,996.12
2018-01-02T03:58:43.401Z,996.07
2018-01-02T03:59:44.000Z,996.18
2018-01-02T04:00:44.595Z,996.07
2018-01-02T04:01:45.191Z,996.14
2018-01-02T04:02:45.795Z,996.16
2018-01-02T04:03:46.385Z,996.19
2018-01-02T04:04:46.988Z,996.26
2018-01-02T04:05:47.582Z,996.22
2018-01-02T04:06:48.176Z,996.21
2018-01-02T04:07:48.771Z,996.28
2018-01-02T04:08:49.374Z,996.27
2018-01-02T04:09:49.978Z,996.30
2018-01-02T04:10:50.571Z,996.37
2018-01-02T04:11:51.168Z,996.41
2018-01-02T04:12:51.773Z,996.34
2018-01-02T04:13:52.365Z,996.41
2018-01-02T04:14:52.954Z,996.49
2018-01-02T04:15:53.550Z,996.48
2018-01-02T04:16:54.147Z,996.51
2018-01-02T04:17:54.752Z,996.51
2018-01-02T04:18:55.347Z,996.56
2018-01-02T04:19:55.941Z,996.56
2018-01-02T04:20:56.553Z,996.57
2018-01-02T04:21:57.161Z,996.54
2018-01-02T04:22:57.756Z,996.62
2018-01-02T04:23:58.355Z,996.59
2018-01-02T04:24:58.943Z,996.53
2018-01-02T04:25:59.546Z,996.59
2018-01-02T04:27:00.151Z,996.65
2018-01-02T04:28:00.746Z,996.64
2018-01-02T04:29:01.336Z,996.60
2018-01-02T04:30:01.933Z,996.70
2018-01-02T04:31:02.523Z,996.70
2018-01-02T04:32:03.120Z,996.72
2018-01-02T04:33:03.722Z,996.70
2018-01-02T04:34:04.303Z,996.72
2018-01-02T04:35:04.901Z,996.80
2018-01-02T04:36:05.499Z,996.72
2018-01-02T04:37:06.094Z,996.82
2018-01-02T04:38:06.694Z,996.87
2018-01-02T04:39:07.289Z,996.98
2018-01-02T04:40:07.883Z,997.00
2018-01-02T04:41:08.475Z,996.95
2018-01-02T04:42:09.073Z,997.06
2018-01-02T04:43:09.671Z,997.05
2018-01-02T04:44:10.267Z,997.14
2018-01-02T04:45:10.871Z,997.18
2018-01-02T04:46:11.473Z,997.21
2018-01-02T04:47:12.068Z,997.21
2018-01-02T04:48:12.680Z,997.29
2018-01-02T04:49:13.289Z,997.26
2018-01-02T04:50:13.949Z,997.38
2018-01-02T04:51:14.484Z,997.25
2018-01-02T04:52:15.086Z,997.34
2018-01-02T04:53:15.688Z,997.38
2018-01-02T04:54:16.285Z,997.32
2018-01-02T04:55:16.888Z,997.41
2018-01-02T04:56:17.491Z,997.40
2018-01-02T04:57:18.081Z,997.38
2018-01-02T04:58:18.677Z,997.46
2018-01-02T04:59:19.274Z,997.44
2018-01-02T05:00:19.879Z,997.47
2018-01-02T05:01:20.483Z,997.53
2018-01-02T05:02:21.075Z,997.62
2018-01-02T05:03:21.687Z,997.53
2018-01-02T05:04:22.295Z,997.55
2018-01-02T05:05:22.880Z,997.66
2018-01-02T05:06:23.481Z,997.65
2018-01-02T05:07:24.081Z,997.61
2018-01-02T05:08:24.679Z,997.72
2018-01-02T05:09:25.273Z,997.75
2018-01-02T05:10:25.884Z,997.84
2018-01-02T05:11:26.486Z,997.81
2018-01-02T05:12:27.086Z,997.78
2018-01-02T05:13:27.681Z,997.84
2018-01-02T05:14:28.278Z,997.88
2018-01-02T05:15:28.868Z,997.98
2018-01-02T05:16:29.465Z,997.94
2018-01-02T05:17:30.062Z,998.01
2018-01-02T05:18:30.660Z,998.06
2018-01-02T05:19:31.252Z,998.10
2018-01-02T05:20:31.843Z,998.11
2018-01-02T05:21:32.438Z,998.21
2018-01-02T05:22:33.050Z,998.21
2018-01-02T05:23:33.664Z,998.21
2018-01-02T05:24:34.266Z,998.15
2018-01-02T05:25:34.864Z,998.17
2018-01-02T05:26:35.463Z,998.17
2018-01-02T05:27:36.063Z,998.19
2018-01-02T05:28:36.652Z,998.23
2018-01-02T05:29:37.248Z,998.15
2018-01-02T05:30:37.849Z,998.23
2018-01-02T05:31:38.439Z,998.26
2018-01-02T05:32:39.052Z,998.22
2018-01-02T05:33:39.640Z,998.32
2018-01-02T05:34:40.234Z,998.47
2018-01-02T05:35:40.822Z,998.38
2018-01-02T05:36:41.424Z,998.33
2018-01-02T05:37:42.028Z,998.40
2018-01-02T05:38:42.623Z,998.35
2018-01-02T05:39:43.223Z,998.00
2018-01-02T05:40:43.827Z,998.30
2018-01-02T05:41:44.426Z,998.50
2018-01-02T05:42:45.031Z,998.45
2018-01-02T05:43:45.620Z,998.43
2018-01-02T05:44:46.220Z,998.54
2018-01-02T05:45:46.814Z,998.54
2018-01-02T05:46:47.402Z,998.64
2018-01-02T05:47:47.989Z,998.59
2018-01-02T05:48:48.593Z,998.63
2018-01-02T05:49:49.199Z,998.67
2018-01-02T05:50:49.797Z,998.71
2018-01-02T05:51:50.389Z,998.72
2018-01-02T05:52:50.984Z,998.75
2018-01-02T05:53:51.574Z,998.82
2018-01-02T05:54:52.175Z,998.80
2018-01-02T05:55:52.777Z,998.82
2018-01-02T05:56:53.387Z,998.94
2018-01-02T05:57:53.984Z,998.87
2018-01-02T05:58:54.603Z,998.93
2018-01-02T05:59:55.220Z,998.84
2018-01-02T06:00:55.793Z,998.92
2018-01-02T06:01:56.388Z,999.01
2018-01-02T06:02:56.990Z,998.90
2018-01-02T06:03:57.601Z,999.06
2018-01-02T06:04:58.196Z,999.11
2018-01-02T06:05:58.792Z,999.13
2018-01-02T06:06:59.389Z,999.20
2018-01-02T06:07:59.992Z,999.17
2018-01-02T06:09:00.588Z,999.23
2018-01-02T06:10:01.192Z,999.31
2018-01-02T06:11:01.802Z,999.31
2018-01-02T06:12:02.391Z,999.31
2018-01-02T06:13:02.997Z,999.35
2018-01-02T06:14:03.610Z,999.38
2018-01-02T06:15:04.223Z,999.34
2018-01-02T06:16:04.809Z,999.43
2018-01-02T06:17:05.397Z,999.32
2018-01-02T06:18:06.034Z,999.40
2018-01-02T06:19:06.611Z,999.39
2018-01-02T06:20:07.205Z,999.34
2018-01-02T06:21:07.809Z,999.37
2018-01-02T06:22:08.398Z,999.42
2018-01-02T06:23:08.989Z,999.38
2018-01-02T06:24:09.576Z,999.37
2018-01-02T06:25:10.172Z,999.31
2018-01-02T06:26:10.772Z,999.38
2018-01-02T06:27:11.359Z,999.42
2018-01-02T06:28:11.959Z,999.43
2018-01-02T06:29:12.561Z,999.45
2018-01-02T06:30:13.167Z,999.42
2018-01-02T06:31:13.807Z,999.43
2018-01-02T06:32:14.362Z,999.54
2018-01-02T06:33:14.972Z,999.42
2018-01-02T06:34:15.568Z,999.45
2018-01-02T06:35:16.173Z,999.50
2018-01-02T06:36:16.776Z,999.42
2018-01-02T06:37:17.377Z,999.53
2018-01-02T06:38:17.966Z,999.62
2018-01-02T06:39:18.562Z,999.60
2018-01-02T06:40:19.157Z,999.61
2018-01-02T06:41:19.752Z,999.68
2018-01-02T06:42:20.347Z,999.73
2018-01-02T06:43:20.987Z,999.70
2018-01-02T06:44:21.568Z,999.69
2018-01-02T06:45:22.179Z,999.73
2018-01-02T06:46:22.784Z,999.66
2018-01-02T06:47:23.387Z,999.82
2018-01-02T06:48:23.986Z,999.75
2018-01-02T06:49:24.585Z,999.77
2018-01-02T06:50:25.171Z,999.80
2018-01-02T06:51:25.794Z,999.72
2018-01-02T06:52:26.375Z,999.86
2018-01-02T06:53:26.977Z,999.82
2018-01-02T06:54:27.579Z,999.89
2018-01-02T06:55:28.186Z,999.81
2018-01-02T06:56:28.788Z,999.83
2018-01-02T06:57:29.385Z,999.78
2018-01-02T06:58:29.977Z,999.85
2018-01-02T06:59:30.608Z,999.91
2018-01-02T07:00:31.177Z,999.87
2018-01-02T07:01:31.791Z,999.97
2018-01-02T07:02:32.411Z,1000.03
2018-01-02T07:03:33.005Z,999.92
2018-01-02T07:04:33.611Z,999.92
2018-01-02T07:05:34.207Z,999.95
2018-01-02T07:06:34.809Z,999.95
2018-01-02T07:07:35.411Z,1000.05
2018-01-02T07:08:36.019Z,1000.04
2018-01-02T07:09:36.622Z,1000.10
2018-01-02T07:10:37.235Z,1000.04
2018-01-02T07:11:37.837Z,1000.04
2018-01-02T07:12:38.445Z,1000.18
2018-01-02T07:13:39.056Z,1000.12
2018-01-02T07:14:39.656Z,1000.18
2018-01-02T07:15:40.261Z,1000.21
2018-01-02T07:16:40.865Z,1000.20
2018-01-02T07:17:41.479Z,1000.23
2018-01-02T07:18:42.085Z,1000.27
2018-01-02T07:19:42.691Z,1000.29
2018-01-02T07:20:43.288Z,1000.36
2018-01-02T07:21:43.892Z,1000.37
2018-01-02T07:22:44.482Z,1000.38
2018-01-02T07:23:45.083Z,1000.41
2018-01-02T07:24:45.693Z,1000.47
2018-01-02T07:25:46.311Z,1000.42
2018-01-02T07:26:46.913Z,1000.43
2018-01-02T07:27:47.515Z,1000.47
2018-01-02T07:28:48.110Z,1000.43
2018-01-02T07:29:48.711Z,1000.52
2018-01-02T07:30:49.318Z,1000.58
2018-01-02T07:31:49.904Z,1000.69
2018-01-02T07:32:50.514Z,1000.71
2018-01-02T07:33:51.120Z,1000.69
2018-01-02T07:34:51.728Z,1000.83
2018-01-02T07:35:52.335Z,1000.81
2018-01-02T07:36:52.940Z,1000.86
2018-01-02T07:37:53.532Z,1000.88
2018-01-02T07:38:54.123Z,1000.90
2018-01-02T07:39:54.732Z,1000.99
2018-01-02T07:40:55.328Z,1000.99
2018-01-02T07:41:55.943Z,1000.97
2018-01-02T07:42:56.559Z,1001.05
2018-01-02T07:43:57.153Z,1001.08
2018-01-02T07:44:57.757Z,1001.20
2018-01-02T07:45:58.369Z,1001.15
2018-01-02T07:46:58.986Z,1001.17
2018-01-02T07:47:59.598Z,1001.15
2018-01-02T07:49:00.184Z,1001.22
2018-01-02T07:50:00.836Z,1001.23
2018-01-02T07:51:01.424Z,1001.20
2018-01-02T07:52:02.032Z,1001.28
2018-01-02T07:53:02.650Z,1001.36
2018-01-02T07:54:03.259Z,1001.36
2018-01-02T07:55:03.867Z,1001.29
2018-01-02T07:56:04.476Z,1001.40
2018-01-02T07:57:05.088Z,1001.41
2018-01-02T07:58:05.710Z,1001.46
2018-01-02T07:59:06.325Z,1001.48
2018-01-02T08:00:06.921Z,1001.47
2018-01-02T08:01:07.523Z,1001.47
2018-01-02T08:02:08.118Z,1001.52
2018-01-02T08:03:08.719Z,1001.54
2018-01-02T08:04:09.314Z,1001.50
2018-01-02T08:05:09.917Z,1001.58
2018-01-02T08:06:10.561Z,1001.61
2018-01-02T08:07:11.115Z,1001.59
2018-01-02T08:08:11.718Z,1001.62
2018-01-02T08:09:12.322Z,1001.60
2018-01-02T08:10:12.923Z,1001.64
2018-01-02T08:11:13.526Z,1001.64
2018-01-02T08:12:14.139Z,1001.66
2018-01-02T08:13:14.749Z,1001.64
2018-01-02T08:14:15.354Z,1001.65
2018-01-02T08:15:15.960Z,1001.63
2018-01-02T08:16:16.564Z,1001.69
2018-01-02T08:17:17.169Z,1001.66
2018-01-02T08:18:17.773Z,1001.64
2018-01-02T08:19:18.369Z,1001.66
2018-01-02T08:20:18.977Z,1001.74
2018-01-02T08:21:19.583Z,1001.74
2018-01-02T08:22:20.189Z,1001.76
2018-01-02T08:23:20.794Z,1001.76
2018-01-02T08:24:21.383Z,1001.72
2018-01-02T08:25:21.977Z,1001.77
2018-01-02T08:26:22.582Z,1001.79
2018-01-02T08:27:23.191Z,1001.79
2018-01-02T08:28:23.779Z,1001.74
2018-01-02T08:29:24.389Z,1001.70
2018-01-02T08:30:24.997Z,1001.76
2018-01-02T08:31:25.595Z,1001.83
2018-01-02T08:32:26.192Z,1001.83
2018-01-02T08:33:26.794Z,1001.90
2018-01-02T08:34:27.397Z,1001.84
2018-01-02T08:35:27.995Z,1001.83
2018-01-02T08:36:28.597Z,1001.89
2018-01-02T08:37:29.207Z,1001.89
2018-01-02T08:38:29.835Z,1001.89
2018-01-02T08:39:30.429Z,1001.84
2018-01-02T08:40:31.045Z,1001.82
2018-01-02T08:41:31.641Z,1001.86
2018-01-02T08:42:32.251Z,1001.86
2018-01-02T08:43:32.848Z,1001.91
2018-01-02T08:44:33.451Z,1001.95
2018-01-02T08:45:34.054Z,1001.92
2018-01-02T08:46:34.689Z,1001.97
2018-01-02T08:47:35.278Z,1001.96
2018-01-02T08:48:35.879Z,1001.99
2018-01-02T08:49:36.487Z,1002.01
2018-01-02T08:50:37.091Z,1002.00
2018-01-02T08:51:37.759Z,1002.06
2018-01-02T08:52:38.308Z,1002.04
2018-01-02T08:53:38.916Z,1002.04
2018-01-02T08:54:39.525Z,1002.01
2018-01-02T08:55:40.141Z,1001.95
2018-01-02T08:56:40.754Z,1002.02
2018-01-02T08:57:41.380Z,1002.00
2018-01-02T08:58:41.974Z,1002.10
2018-01-02T08:59:42.581Z,1002.13
2018-01-02T09:00:43.192Z,1002.15
2018-01-02T09:01:43.800Z,1002.14
2018-01-02T09:02:44.411Z,1002.16
2018-01-02T09:03:45.015Z,1002.07
2018-01-02T09:04:45.610Z,1002.18
2018-01-02T09:05:46.219Z,1002.16
2018-01-02T09:06:46.826Z,1002.17
2018-01-02T09:07:47.433Z,1002.16
2018-01-02T09:08:48.029Z,1002.28
2018-01-02T09:09:48.633Z,1002.21
2018-01-02T09:10:49.236Z,1002.22
2018-01-02T09:11:49.838Z,1002.26
2018-01-02T09:12:50.434Z,1002.28
2018-01-02T09:13:51.104Z,1002.31
2018-01-02T09:14:51.648Z,1002.29
2018-01-02T09:15:52.246Z,1002.29
2018-01-02T09:16:52.852Z,1002.29
2018-01-02T09:17:53.452Z,1002.33
2018-01-02T09:18:54.055Z,1002.29
2018-01-02T09:19:54.683Z,1002.32
2018-01-02T09:20:55.277Z,1002.32
2018-01-02T09:21:55.878Z,1002.29
2018-01-02T09:22:56.480Z,1002.35
2018-01-02T09:23:57.087Z,1002.41
2018-01-02T09:24:57.700Z,1002.36
2018-01-02T09:25:58.294Z,1002.43
2018-01-02T09:26:58.896Z,1002.38
2018-01-02T09:27:59.510Z,1002.38
2018-01-02T09:29:00.113Z,1002.43
2018-01-02T09:30:00.726Z,1002.43
2018-01-02T09:31:01.350Z,1002.40
2018-01-02T09:32:01.966Z,1002.41
2018-01-02T09:33:02.582Z,1002.45
2018-01-02T09:34:03.187Z,1002.40
2018-01-02T09:35:03.795Z,1002.43
2018-01-02T09:36:04.405Z,1002.45
2018-01-02T09:37:05.021Z,1002.50
2018-01-02T09:38:05.627Z,1002.48
2018-01-02T09:39:06.235Z,1002.50
2018-01-02T09:40:06.844Z,1002.43
2018-01-02T09:41:07.453Z,1002.53
2018-01-02T09:42:08.064Z,1002.49
2018-01-02T09:43:08.676Z,1002.49
2018-01-02T09:44:09.282Z,1002.50
2018-01-02T09:45:09.888Z,1002.50
2018-01-02T09:46:10.501Z,1002.54
2018-01-02T09:47:11.107Z,1002.55
2018-01-02T09:48:11.719Z,1002.55
2018-01-02T09:49:12.329Z,1002.55
2018-01-02T09:50:12.943Z,1002.53
2018-01-02T09:51:13.548Z,1002.50
2018-01-02T09:52:14.145Z,1002.56
2018-01-02T09:53:14.747Z,1002.53
2018-01-02T09:54:15.365Z,1002.49
2018-01-02T09:55:15.989Z,1002.48
2018-01-02T09:56:16.600Z,1002.49
2018-01-02T09:57:17.209Z,1002.46
2018-01-02T09:58:17.824Z,1002.50
2018-01-02T09:59:18.427Z,1002.50
2018-01-02T10:00:19.033Z,1002.52
2018-01-02T10:01:19.638Z,1002.56
2018-01-02T10:02:20.241Z,1002.56
2018-01-02T10:03:20.857Z,1002.55
2018-01-02T10:04:21.461Z,1002.58
2018-01-02T10:05:22.063Z,1002.61
2018-01-02T10:06:22.668Z,1002.61
2018-01-02T10:07:23.274Z,1002.56
2018-01-02T10:08:23.890Z,1002.62
2018-01-02T10:09:24.511Z,1002.65
2018-01-02T10:10:25.124Z,1002.67
2018-01-02T10:11:25.742Z,1002.67
2018-01-02T10:12:26.348Z,1002.66
2018-01-02T10:13:26.951Z,1002.70
2018-01-02T10:14:27.547Z,1002.68
2018-01-02T10:15:28.155Z,1002.75
2018-01-02T10:16:28.761Z,1002.79
2018-01-02T10:17:29.374Z,1002.73
2018-01-02T10:18:30.009Z,1002.73
2018-01-02T10:19:30.592Z,1002.78
2018-01-02T10:20:31.202Z,1002.81
2018-01-02T10:21:31.803Z,1002.84
2018-01-02T10:22:32.411Z,1002.83
2018-01-02T10:23:33.015Z,1002.83
2018-01-02T10:24:33.622Z,1002.83
2018-01-02T10:25:34.240Z,1002.84
2018-01-02T10:26:34.851Z,1002.83
2018-01-02T10:27:35.465Z,1002.81
2018-01-02T10:28:36.062Z,1002.82
2018-01-02T10:29:36.665Z,1002.85
2018-01-02T10:30:37.280Z,1002.81
2018-01-02T10:31:37.890Z,1002.82
2018-01-02T10:32:38.502Z,1002.77
2018-01-02T10:33:39.098Z,1002.78
2018-01-02T10:34:39.696Z,1002.81
2018-01-02T10:35:40.299Z,1002.75
2018-01-02T10:36:40.921Z,1002.77
2018-01-02T10:37:41.534Z,1002.75
2018-01-02T10:38:42.139Z,1002.67
2018-01-02T10:39:42.753Z,1002.75
2018-01-02T10:40:43.351Z,1002.73
2018-01-02T10:41:43.964Z,1002.78
2018-01-02T10:42:44.571Z,1002.75
2018-01-02T10:43:45.168Z,1002.74
2018-01-02T10:44:45.775Z,1002.74
2018-01-02T10:45:46.384Z,1002.81
2018-01-02T10:46:47.003Z,1002.82
2018-01-02T10:47:47.615Z,1002.85
2018-01-02T10:48:48.223Z,1002.87
2018-01-02T10:49:48.832Z,1002.86
2018-01-02T10:50:49.444Z,1002.88
2018-01-02T10:51:50.064Z,1002.85
2018-01-02T10:52:50.679Z,1002.86
2018-01-02T10:53:51.292Z,1002.86
2018-01-02T10:54:51.897Z,1002.84
2018-01-02T10:55:52.510Z,1002.74
2018-01-02T10:56:53.118Z,1002.83
2018-01-02T10:57:53.733Z,1002.81
2018-01-02T10:58:54.349Z,1002.86
2018-01-02T10:59:54.956Z,1002.86
2018-01-02T11:00:55.569Z,1002.95
2018-01-02T11:01:56.177Z,1002.87
2018-01-02T11:02:56.791Z,1002.88
2018-01-02T11:03:57.406Z,1002.88
2018-01-02T11:04:58.020Z,1002.91
2018-01-02T11:05:58.691Z,1002.89
2018-01-02T11:06:59.283Z,1002.91
2018-01-02T11:07:59.881Z,1002.92
2018-01-02T11:09:00.497Z,1003.00
2018-01-02T11:10:01.119Z,1003.05
2018-01-02T11:11:01.733Z,1003.04
2018-01-02T11:12:02.332Z,1003.05
2018-01-02T11:13:02.942Z,1003.05
2018-01-02T11:14:03.552Z,1003.08
2018-01-02T11:15:04.165Z,1003.03
2018-01-02T11:16:04.767Z,1003.12
2018-01-02T11:17:05.363Z,1003.13
2018-01-02T11:18:05.970Z,1003.15
2018-01-02T11:19:06.573Z,1003.14
2018-01-02T11:20:07.180Z,1003.16
2018-01-02T11:21:07.790Z,1003.19
2018-01-02T11:22:08.399Z,1003.16
2018-01-02T11:23:09.010Z,1003.24
2018-01-02T11:24:09.624Z,1003.21
2018-01-02T11:25:10.246Z,1003.17
2018-01-02T11:26:10.848Z,1003.16
2018-01-02T11:27:11.459Z,1003.17
2018-01-02T11:28:12.071Z,1003.16
2018-01-02T11:29:12.671Z,1003.18
2018-01-02T11:30:13.275Z,1003.14
2018-01-02T11:31:13.896Z,1003.11
2018-01-02T11:32:14.496Z,1003.05
2018-01-02T11:33:15.098Z,1003.06
2018-01-02T11:34:15.712Z,1003.08
2018-01-02T11:35:16.317Z,1003.07
2018-01-02T11:36:16.926Z,1003.06
2018-01-02T11:37:17.528Z,1003.03
2018-01-02T11:38:18.134Z,1003.01
2018-01-02T11:39:18.751Z,1002.98
2018-01-02T11:40:19.374Z,1002.89
2018-01-02T11:41:20.003Z,1002.92
2018-01-02T11:42:20.628Z,1002.91
2018-01-02T11:43:21.255Z,1002.92
2018-01-02T11:44:21.867Z,1002.94
2018-01-02T11:45:22.466Z,1002.93
2018-01-02T11:46:23.082Z,1002.95
2018-01-02T11:47:23.700Z,1002.93
2018-01-02T11:48:24.305Z,1002.94
2018-01-02T11:49:24.901Z,1002.86
2018-01-02T11:50:25.513Z,1002.81
2018-01-02T11:51:26.128Z,1002.84
2018-01-02T11:52:26.754Z,1002.85
2018-01-02T11:53:27.375Z,1002.76
2018-01-02T11:54:27.999Z,1002.81
2018-01-02T11:55:28.622Z,1002.80
2018-01-02T11:56:29.230Z,1002.72
2018-01-02T11:57:29.833Z,1002.71
2018-01-02T11:58:30.443Z,1002.69
2018-01-02T11:59:31.054Z,1002.67
2018-01-02T12:00:31.654Z,1002.68
2018-01-02T12:01:32.270Z,1002.66
2018-01-02T12:02:32.887Z,1002.61
2018-01-02T12:03:33.497Z,1002.54
2018-01-02T12:04:34.102Z,1002.53
2018-01-02T12:05:34.714Z,1002.55
2018-01-02T12:06:35.320Z,1002.51
2018-01-02T12:07:35.929Z,1002.52
2018-01-02T12:08:36.564Z,1002.46
2018-01-02T12:09:37.137Z,1002.48
2018-01-02T12:10:37.742Z,1002.55
2018-01-02T12:11:38.401Z,1002.44
2018-01-02T12:12:38.981Z,1002.40
2018-01-02T12:13:39.585Z,1002.36
2018-01-02T12:14:40.186Z,1002.37
2018-01-02T12:15:40.794Z,1002.35
2018-01-02T12:16:41.392Z,1002.35
2018-01-02T12:17:42.086Z,1002.30
2018-01-02T12:18:42.605Z,1002.26
2018-01-02T12:19:43.213Z,1002.31
2018-01-02T12:20:43.825Z,1002.36
2018-01-02T12:21:44.441Z,1002.28
2018-01-02T12:22:45.050Z,1002.29
2018-01-02T12:23:45.659Z,1002.29
2018-01-02T12:24:46.279Z,1002.26
2018-01-02T12:25:46.893Z,1002.27
2018-01-02T12:26:47.496Z,1002.21